Time;durP1;ratioP1;P1;durP2;ratioP2;P2;SDS_P1;SDS_P2;PMS_P1;PMS_P2;Temp;Humidity;BMP_temperature;BMP_pressure;BME280_temperature;BME280_humidity;BME280_pressure;Samples;Min_cycle;Max_cycle;Signal;HPM_P1;HPM_P2
2022/03/23 00:01:17;;;;;;;;;;;11.10;94.20;;;;;;4972994;28;19917;-94
2022/03/23 00:03:43;;;;;;;;;;;11.00;94.30;;;;;;4972194;28;20076;-91
2022/03/23 00:06:09;;;;;;;;;;;11.00;94.60;;;;;;4971989;28;19920;-91
2022/03/23 00:08:34;;;;;;;;;;;11.00;94.10;;;;;;4972490;28;19910;-96
2022/03/23 00:11:01;;;;;;;;;;;10.90;94.30;;;;;;4975961;28;19941;-90
2022/03/23 00:13:26;;;;;;;;;;;10.90;94.20;;;;;;4975898;28;19910;-91
2022/03/23 00:15:54;;;;;;;;;;;10.90;94.00;;;;;;4975728;28;20493;-90
2022/03/23 00:18:20;;;;;;;;;;;10.90;94.20;;;;;;4975678;28;19913;-89
2022/03/23 00:20:45;;;;;;;;;;;10.90;94.00;;;;;;4975137;28;20053;-90
2022/03/23 00:23:11;;;;;;;;;;;10.90;93.60;;;;;;4975326;28;19910;-90
2022/03/23 00:25:36;;;;;;;;;;;10.90;94.30;;;;;;4976924;28;20422;-90
2022/03/23 00:28:07;;;;;;;;;;;10.80;93.90;;;;;;4975686;28;19990;-90
2022/03/23 00:30:33;;;;;;;;;;;10.80;93.80;;;;;;4975201;28;19997;-91
2022/03/23 00:33:00;;;;;;;;;;;10.80;93.50;;;;;;4975860;28;19910;-89
2022/03/23 00:35:25;;;;;;;;;;;10.80;94.10;;;;;;4975590;28;19917;-91
2022/03/23 00:37:51;;;;;;;;;;;10.80;93.50;;;;;;4976909;28;19914;-89
2022/03/23 00:40:17;;;;;;;;;;;10.80;93.30;;;;;;4975610;28;19914;-89
2022/03/23 00:42:42;;;;;;;;;;;10.70;93.30;;;;;;4984371;28;19917;-89
2022/03/23 00:45:11;;;;;;;;;;;10.70;93.50;;;;;;4977656;28;19957;-90
2022/03/23 00:47:37;;;;;;;;;;;10.60;93.60;;;;;;4976183;28;19968;-91
2022/03/23 00:50:04;;;;;;;;;;;10.60;93.40;;;;;;4975600;28;19965;-96
2022/03/23 00:52:30;;;;;;;;;;;10.60;93.50;;;;;;4975140;28;19966;-90
2022/03/23 00:54:55;;;;;;;;;;;10.60;93.30;;;;;;4975571;28;19964;-90
2022/03/23 00:57:21;;;;;;;;;;;10.60;93.90;;;;;;4976459;28;19917;-91
2022/03/23 00:59:46;;;;;;;;;;;10.60;93.20;;;;;;4975336;28;20008;-90
2022/03/23 01:02:14;;;;;;;;;;;10.50;93.70;;;;;;4976139;28;19936;-96
2022/03/23 01:04:39;;;;;;;;;;;10.50;93.00;;;;;;4976324;28;20022;-90
2022/03/23 01:07:05;;;;;;;;;;;10.50;92.60;;;;;;4974656;28;19910;-90
2022/03/23 01:09:31;;;;;;;;;;;10.50;93.10;;;;;;4974578;28;19917;-91
2022/03/23 01:11:57;;;;;;;;;;;10.50;93.00;;;;;;4974843;28;19918;-90
2022/03/23 01:14:23;;;;;;;;;;;10.50;92.60;;;;;;4974336;28;19914;-90
2022/03/23 01:16:50;;;;;;;;;;;10.50;92.90;;;;;;4976101;28;19921;-93
2022/03/23 01:19:17;;;;;;;;;;;10.50;93.60;;;;;;4974690;28;20004;-91
2022/03/23 01:21:43;;;;;;;;;;;10.40;92.60;;;;;;4973298;28;19910;-90
2022/03/23 01:24:09;;;;;;;;;;;10.40;92.60;;;;;;4974975;28;19914;-95
2022/03/23 01:26:35;;;;;;;;;;;10.40;92.70;;;;;;4974450;28;20006;-90
2022/03/23 01:29:01;;;;;;;;;;;10.40;92.40;;;;;;4975880;28;19973;-91
2022/03/23 01:31:27;;;;;;;;;;;10.50;92.80;;;;;;4974269;28;19922;-90
2022/03/23 01:33:59;;;;;;;;;;;10.40;91.90;;;;;;4974063;28;19913;-90
2022/03/23 01:36:26;;;;;;;;;;;10.40;92.90;;;;;;4974515;28;19916;-90
2022/03/23 01:38:51;;;;;;;;;;;10.30;92.30;;;;;;4974294;28;19910;-90
2022/03/23 01:41:17;;;;;;;;;;;10.40;92.10;;;;;;4974320;28;19918;-91
2022/03/23 01:43:42;;;;;;;;;;;10.30;92.00;;;;;;4975171;28;20354;-90
2022/03/23 01:46:08;;;;;;;;;;;10.30;92.10;;;;;;4974275;28;19937;-94
2022/03/23 01:48:33;;;;;;;;;;;10.30;92.40;;;;;;4975131;28;19992;-93
2022/03/23 01:50:59;;;;;;;;;;;10.40;92.10;;;;;;4973482;28;19918;-91
2022/03/23 01:53:24;;;;;;;;;;;10.30;92.00;;;;;;4974155;28;19932;-95
2022/03/23 01:55:50;;;;;;;;;;;10.30;92.20;;;;;;4974255;28;20060;-90
2022/03/23 01:58:17;;;;;;;;;;;10.30;91.80;;;;;;4975286;28;19914;-90
2022/03/23 02:00:42;;;;;;;;;;;10.30;91.80;;;;;;4973786;28;19949;-93
2022/03/23 02:03:11;;;;;;;;;;;10.30;92.30;;;;;;4975207;28;19984;-91
2022/03/23 02:05:37;;;;;;;;;;;10.30;92.70;;;;;;4974363;28;20009;-89
2022/03/23 02:08:02;;;;;;;;;;;10.30;92.00;;;;;;4974285;28;19941;-96
2022/03/23 02:10:28;;;;;;;;;;;10.20;92.80;;;;;;4974668;28;19917;-90
2022/03/23 02:12:54;;;;;;;;;;;10.20;92.40;;;;;;4974022;28;19918;-91
2022/03/23 02:15:21;;;;;;;;;;;10.20;92.40;;;;;;4973555;28;20382;-90
2022/03/23 02:17:50;;;;;;;;;;;10.10;92.10;;;;;;4957264;28;19934;-90
2022/03/23 02:20:15;;;;;;;;;;;10.10;92.70;;;;;;4973440;28;19957;-89
2022/03/23 02:22:41;;;;;;;;;;;10.00;92.60;;;;;;4973288;28;19925;-90
2022/03/23 02:25:07;;;;;;;;;;;10.00;92.50;;;;;;4973707;28;19973;-95
2022/03/23 02:27:36;;;;;;;;;;;10.00;92.30;;;;;;4973952;28;19997;-90
2022/03/23 02:30:02;;;;;;;;;;;10.00;92.50;;;;;;4973770;28;20185;-96
2022/03/23 02:32:28;;;;;;;;;;;9.90;92.60;;;;;;4972799;28;19941;-95
2022/03/23 02:34:54;;;;;;;;;;;10.00;92.90;;;;;;4983641;28;20362;-94
2022/03/23 02:37:19;;;;;;;;;;;10.00;92.40;;;;;;4978088;28;19914;-95
2022/03/23 02:39:45;;;;;;;;;;;9.90;92.30;;;;;;4973693;28;20010;-92
2022/03/23 02:42:10;;;;;;;;;;;9.90;92.60;;;;;;4974493;28;19917;-90
2022/03/23 02:44:36;;;;;;;;;;;9.80;92.10;;;;;;4974293;28;19910;-92
2022/03/23 02:47:03;;;;;;;;;;;9.80;92.40;;;;;;4974105;28;19910;-90
2022/03/23 02:49:28;;;;;;;;;;;9.70;92.30;;;;;;4972726;28;20016;-90
2022/03/23 02:51:54;;;;;;;;;;;9.70;92.80;;;;;;4974034;28;20016;-90
2022/03/23 03:02:58;;;;;;;;;;;9.50;92.00;;;;;;4974750;28;19956;-95
2022/03/23 03:05:24;;;;;;;;;;;9.50;92.40;;;;;;4974286;28;19953;-90
2022/03/23 03:10:33;;;;;;;;;;;9.70;91.60;;;;;;4973969;28;19918;-90
2022/03/23 03:12:59;;;;;;;;;;;9.60;91.50;;;;;;4974399;28;19922;-93
2022/03/23 03:15:25;;;;;;;;;;;9.60;92.00;;;;;;4973926;28;19957;-90
2022/03/23 03:17:50;;;;;;;;;;;9.60;91.80;;;;;;4973828;28;19956;-94
2022/03/23 03:20:16;;;;;;;;;;;9.60;92.00;;;;;;4972245;28;20542;-95
2022/03/23 03:22:43;;;;;;;;;;;9.60;91.40;;;;;;4972738;28;20375;-89
2022/03/23 03:25:11;;;;;;;;;;;9.50;91.50;;;;;;4972948;28;19918;-89
2022/03/23 03:27:38;;;;;;;;;;;9.40;91.20;;;;;;4973981;28;20363;-95
2022/03/23 03:30:04;;;;;;;;;;;9.40;91.30;;;;;;4972880;28;19929;-91
2022/03/23 03:32:30;;;;;;;;;;;9.50;91.50;;;;;;4972486;28;20283;-91
2022/03/23 03:34:56;;;;;;;;;;;9.50;91.90;;;;;;4973133;28;19969;-92
2022/03/23 03:37:22;;;;;;;;;;;9.50;92.10;;;;;;4972716;28;19910;-96
2022/03/23 03:39:47;;;;;;;;;;;9.50;91.70;;;;;;4972323;28;19965;-96
2022/03/23 03:42:13;;;;;;;;;;;9.50;91.80;;;;;;4973696;28;20505;-96
2022/03/23 03:44:39;;;;;;;;;;;9.50;91.10;;;;;;4974815;28;19911;-90
2022/03/23 03:47:05;;;;;;;;;;;9.40;91.40;;;;;;4976575;28;19910;-93
2022/03/23 03:49:31;;;;;;;;;;;9.40;91.80;;;;;;4976454;28;19914;-92
2022/03/23 03:51:57;;;;;;;;;;;9.40;91.30;;;;;;4977523;28;19925;-91
2022/03/23 03:54:22;;;;;;;;;;;9.40;91.90;;;;;;4976258;28;19910;-90
2022/03/23 03:56:48;;;;;;;;;;;9.50;91.30;;;;;;4977512;28;20486;-92
2022/03/23 03:59:13;;;;;;;;;;;9.40;91.70;;;;;;4976348;28;20410;-92
2022/03/23 04:01:39;;;;;;;;;;;9.40;91.50;;;;;;4978059;28;19914;-91
2022/03/23 04:04:05;;;;;;;;;;;9.50;91.60;;;;;;4976498;28;19910;-91
2022/03/23 04:06:30;;;;;;;;;;;9.40;90.80;;;;;;4976411;28;19918;-91
2022/03/23 04:08:56;;;;;;;;;;;9.30;91.90;;;;;;4976240;28;19910;-91
2022/03/23 04:11:21;;;;;;;;;;;9.30;90.80;;;;;;4975856;28;20358;-90
2022/03/23 04:13:47;;;;;;;;;;;9.30;90.70;;;;;;4976137;28;20501;-92
2022/03/23 04:16:12;;;;;;;;;;;9.30;91.00;;;;;;4976205;28;20045;-94
2022/03/23 04:18:38;;;;;;;;;;;9.20;91.30;;;;;;4973034;28;19919;-96
2022/03/23 04:21:04;;;;;;;;;;;9.10;91.90;;;;;;4956747;29;20385;-91
2022/03/23 04:23:30;;;;;;;;;;;9.10;91.80;;;;;;4957239;29;19910;-90
2022/03/23 04:25:56;;;;;;;;;;;9.00;91.70;;;;;;4956321;29;20272;-90
2022/03/23 04:28:21;;;;;;;;;;;9.10;91.70;;;;;;4957980;28;19945;-91
2022/03/23 04:30:48;;;;;;;;;;;9.00;91.60;;;;;;4956170;29;19997;-91
2022/03/23 04:33:13;;;;;;;;;;;8.90;92.30;;;;;;4957727;28;19915;-91
2022/03/23 04:35:39;;;;;;;;;;;8.90;92.30;;;;;;4957555;28;19915;-92
2022/03/23 04:38:05;;;;;;;;;;;8.90;91.70;;;;;;4956660;29;19911;-91
2022/03/23 04:40:31;;;;;;;;;;;8.90;92.20;;;;;;4956037;29;19914;-91
2022/03/23 04:42:58;;;;;;;;;;;8.90;92.10;;;;;;4958003;28;20443;-90
2022/03/23 04:45:24;;;;;;;;;;;8.90;91.90;;;;;;4955883;29;19995;-91
2022/03/23 04:47:50;;;;;;;;;;;8.90;91.70;;;;;;4956880;28;20387;-95
2022/03/23 04:50:16;;;;;;;;;;;8.90;92.10;;;;;;4956079;29;19911;-95
2022/03/23 04:52:42;;;;;;;;;;;8.90;92.30;;;;;;4957030;28;19937;-92
2022/03/23 04:55:09;;;;;;;;;;;8.90;92.20;;;;;;4956691;28;20363;-96
2022/03/23 04:57:35;;;;;;;;;;;8.80;91.80;;;;;;4957419;28;19918;-91
2022/03/23 05:00:01;;;;;;;;;;;8.60;91.90;;;;;;4957076;28;19961;-91
2022/03/23 05:02:27;;;;;;;;;;;8.60;92.70;;;;;;4957301;28;19961;-91
2022/03/23 05:04:52;;;;;;;;;;;8.50;92.20;;;;;;4955773;29;19957;-95
2022/03/23 05:07:18;;;;;;;;;;;8.50;92.10;;;;;;4955791;29;19910;-90
2022/03/23 05:09:44;;;;;;;;;;;8.40;92.50;;;;;;4957041;28;19993;-91
2022/03/23 05:12:09;;;;;;;;;;;8.40;92.30;;;;;;4955926;29;20278;-92
2022/03/23 05:14:36;;;;;;;;;;;8.50;92.20;;;;;;4955526;29;19911;-91
2022/03/23 05:17:02;;;;;;;;;;;8.50;92.40;;;;;;4956849;28;19915;-95
2022/03/23 05:19:27;;;;;;;;;;;8.40;92.20;;;;;;4955179;29;19922;-91
2022/03/23 05:21:53;;;;;;;;;;;8.40;92.50;;;;;;4955274;29;19918;-91
2022/03/23 05:24:18;;;;;;;;;;;8.40;92.40;;;;;;4955637;29;19961;-95
2022/03/23 05:26:44;;;;;;;;;;;8.50;92.40;;;;;;4955505;29;19917;-92
2022/03/23 05:29:10;;;;;;;;;;;8.50;92.10;;;;;;4956461;28;19910;-91
2022/03/23 05:31:36;;;;;;;;;;;8.40;92.10;;;;;;4955570;29;20291;-93
2022/03/23 05:34:01;;;;;;;;;;;8.40;92.30;;;;;;4955311;29;19911;-94
2022/03/23 05:36:27;;;;;;;;;;;8.30;92.60;;;;;;4955116;29;20253;-90
2022/03/23 05:38:52;;;;;;;;;;;8.30;92.60;;;;;;4956109;28;20005;-93
2022/03/23 05:41:18;;;;;;;;;;;8.20;92.40;;;;;;4955002;29;19971;-91
2022/03/23 05:43:43;;;;;;;;;;;8.20;91.90;;;;;;4955093;29;19911;-91
2022/03/23 05:46:09;;;;;;;;;;;8.20;92.20;;;;;;4954837;29;19950;-90
2022/03/23 05:48:35;;;;;;;;;;;8.20;92.10;;;;;;4956592;28;20374;-90
2022/03/23 05:51:00;;;;;;;;;;;8.20;92.10;;;;;;4956046;28;19911;-92
2022/03/23 05:53:26;;;;;;;;;;;8.20;92.70;;;;;;4955377;28;19914;-94
2022/03/23 05:55:51;;;;;;;;;;;8.20;92.40;;;;;;4955156;29;19917;-91
2022/03/23 05:58:17;;;;;;;;;;;8.20;92.20;;;;;;4954735;29;19916;-92
2022/03/23 06:00:43;;;;;;;;;;;8.30;91.80;;;;;;4954786;29;19910;-90
2022/03/23 06:03:08;;;;;;;;;;;8.20;91.70;;;;;;4954990;29;19938;-94
2022/03/23 06:05:34;;;;;;;;;;;8.20;92.30;;;;;;4954842;29;19911;-95
2022/03/23 06:07:59;;;;;;;;;;;8.20;91.80;;;;;;4955425;28;19910;-90
2022/03/23 06:10:25;;;;;;;;;;;8.30;92.00;;;;;;4954678;29;19965;-90
2022/03/23 06:12:51;;;;;;;;;;;8.30;92.40;;;;;;4953546;29;19945;-90
2022/03/23 06:15:18;;;;;;;;;;;8.30;91.50;;;;;;4955419;28;19910;-92
2022/03/23 06:17:44;;;;;;;;;;;8.30;92.50;;;;;;4955992;28;19982;-93
2022/03/23 06:20:09;;;;;;;;;;;8.20;92.30;;;;;;4956274;29;19935;-94
2022/03/23 06:22:37;;;;;;;;;;;8.20;92.50;;;;;;4953503;29;19952;-93
2022/03/23 06:25:26;;;;;;;;;;;8.20;92.40;;;;;;4957257;29;20442;-93
2022/03/23 06:27:52;;;;;;;;;;;8.30;91.70;;;;;;4967883;28;19958;-93
2022/03/23 06:30:18;;;;;;;;;;;8.30;91.80;;;;;;4932363;28;19939;-93
2022/03/23 06:32:46;;;;;;;;;;;8.40;91.70;;;;;;4953032;28;19918;-93
2022/03/23 06:35:11;;;;;;;;;;;8.50;91.50;;;;;;4974764;28;19926;-93
2022/03/23 06:37:37;;;;;;;;;;;8.50;91.20;;;;;;4968387;28;20403;-94
2022/03/23 06:40:04;;;;;;;;;;;8.50;90.90;;;;;;4969266;28;20002;-94
2022/03/23 06:42:29;;;;;;;;;;;8.60;92.00;;;;;;4969280;28;20001;-93
2022/03/23 06:44:55;;;;;;;;;;;8.60;91.20;;;;;;4972598;28;20221;-94
2022/03/23 06:47:20;;;;;;;;;;;8.70;90.80;;;;;;4972588;28;19910;-94
2022/03/23 06:49:48;;;;;;;;;;;8.70;90.90;;;;;;4975568;28;19922;-93
2022/03/23 06:52:15;;;;;;;;;;;8.80;91.10;;;;;;4970628;28;19928;-93
2022/03/23 06:54:40;;;;;;;;;;;8.80;91.10;;;;;;4968511;28;19914;-93
2022/03/23 06:57:06;;;;;;;;;;;8.80;91.40;;;;;;4968068;28;19910;-94
2022/03/23 06:59:32;;;;;;;;;;;8.90;90.90;;;;;;4968319;28;19957;-93
2022/03/23 07:01:57;;;;;;;;;;;8.90;90.90;;;;;;4968464;28;20010;-94
2022/03/23 07:04:26;;;;;;;;;;;9.00;90.80;;;;;;4970998;28;19957;-93
2022/03/23 07:06:52;;;;;;;;;;;9.00;90.40;;;;;;4970200;28;19972;-94
2022/03/23 07:09:34;;;;;;;;;;;9.10;90.50;;;;;;4971864;28;20280;-94
2022/03/23 07:12:00;;;;;;;;;;;9.10;90.60;;;;;;4969638;28;19922;-93
2022/03/23 07:14:30;;;;;;;;;;;9.10;90.60;;;;;;4971482;28;19915;-93
2022/03/23 07:16:56;;;;;;;;;;;9.20;90.50;;;;;;4973215;28;20013;-93
2022/03/23 07:19:22;;;;;;;;;;;9.20;89.40;;;;;;4968713;28;19969;-94
2022/03/23 07:21:48;;;;;;;;;;;9.30;90.10;;;;;;4968756;28;20350;-93
2022/03/23 07:24:14;;;;;;;;;;;9.40;90.90;;;;;;4969065;28;19911;-93
2022/03/23 07:26:39;;;;;;;;;;;9.50;90.50;;;;;;4969366;28;19915;-94
2022/03/23 07:29:05;;;;;;;;;;;9.50;90.60;;;;;;4968237;28;20285;-94
2022/03/23 07:31:30;;;;;;;;;;;9.60;89.80;;;;;;4967345;28;19919;-92
2022/03/23 07:33:57;;;;;;;;;;;9.60;90.00;;;;;;4968050;28;19911;-93
2022/03/23 07:36:24;;;;;;;;;;;9.70;90.50;;;;;;4968535;28;19978;-93
2022/03/23 07:38:49;;;;;;;;;;;9.80;90.30;;;;;;4970090;28;19974;-92
2022/03/23 07:41:15;;;;;;;;;;;9.90;89.10;;;;;;4968455;28;19914;-93
2022/03/23 07:43:41;;;;;;;;;;;9.90;89.40;;;;;;4968518;28;19911;-96
2022/03/23 07:46:06;;;;;;;;;;;9.90;88.90;;;;;;4968886;28;19922;-93
2022/03/23 07:48:32;;;;;;;;;;;10.00;90.30;;;;;;4968577;28;20442;-93
2022/03/23 07:50:58;;;;;;;;;;;10.00;89.50;;;;;;4967904;28;19957;-93
2022/03/23 07:53:23;;;;;;;;;;;10.10;90.60;;;;;;4968591;28;20018;-93
2022/03/23 07:55:49;;;;;;;;;;;10.20;89.40;;;;;;4967861;28;19962;-92
2022/03/23 07:58:14;;;;;;;;;;;10.30;90.40;;;;;;4968629;28;19910;-94
2022/03/23 08:00:42;;;;;;;;;;;10.30;90.00;;;;;;4968055;28;20286;-93
2022/03/23 08:03:10;;;;;;;;;;;10.40;90.00;;;;;;4968624;28;20331;-93
2022/03/23 08:05:39;;;;;;;;;;;10.40;90.00;;;;;;4969412;28;19934;-93
2022/03/23 08:08:06;;;;;;;;;;;10.50;90.40;;;;;;4971930;28;19894;-93
2022/03/23 08:10:31;;;;;;;;;;;10.50;90.20;;;;;;4969770;28;20394;-93
2022/03/23 08:12:57;;;;;;;;;;;10.60;90.50;;;;;;4968486;28;20059;-93
2022/03/23 08:15:24;;;;;;;;;;;10.60;90.50;;;;;;4968341;28;19910;-94
2022/03/23 08:17:50;;;;;;;;;;;10.60;90.70;;;;;;4968704;28;19936;-94
2022/03/23 08:20:37;;;;;;;;;;;10.70;90.50;;;;;;4969860;28;19922;-94
2022/03/23 08:23:03;;;;;;;;;;;10.70;90.70;;;;;;4972448;28;20169;-96
2022/03/23 08:25:28;;;;;;;;;;;10.80;90.70;;;;;;4956688;28;20150;-96
2022/03/23 08:27:55;;;;;;;;;;;10.80;90.80;;;;;;4974670;28;20374;-93
2022/03/23 08:30:20;;;;;;;;;;;11.00;90.80;;;;;;4974593;28;19960;-93
2022/03/23 08:32:46;;;;;;;;;;;11.00;90.70;;;;;;4978642;28;19922;-94
2022/03/23 08:35:12;;;;;;;;;;;11.10;90.90;;;;;;4975819;28;19917;-93
2022/03/23 08:37:38;;;;;;;;;;;11.20;91.70;;;;;;4977004;28;19910;-93
2022/03/23 08:40:05;;;;;;;;;;;11.20;92.00;;;;;;4975972;28;19965;-93
2022/03/23 08:42:30;;;;;;;;;;;11.30;91.30;;;;;;4974984;28;20393;-92
2022/03/23 08:44:56;;;;;;;;;;;11.40;91.50;;;;;;4975589;28;19910;-92
2022/03/23 08:47:22;;;;;;;;;;;11.50;92.00;;;;;;4974184;28;19942;-92
2022/03/23 08:49:48;;;;;;;;;;;11.60;91.10;;;;;;4973913;28;19914;-93
2022/03/23 08:52:16;;;;;;;;;;;11.60;91.50;;;;;;4973020;28;22123;-90
2022/03/23 08:54:42;;;;;;;;;;;11.70;90.90;;;;;;4974149;28;20392;-93
2022/03/23 08:57:08;;;;;;;;;;;11.80;91.10;;;;;;4969713;28;19957;-81
2022/03/23 08:59:34;;;;;;;;;;;11.80;91.20;;;;;;4953869;28;19918;-84
2022/03/23 09:01:59;;;;;;;;;;;11.80;90.70;;;;;;4968857;28;20474;-84
2022/03/23 09:04:25;;;;;;;;;;;11.80;91.00;;;;;;4973252;28;19914;-84
2022/03/23 09:06:50;;;;;;;;;;;12.00;91.70;;;;;;4973984;28;20342;-85
2022/03/23 09:09:16;;;;;;;;;;;12.10;91.40;;;;;;4973821;28;20294;-84
2022/03/23 09:11:44;;;;;;;;;;;12.20;90.80;;;;;;4957533;28;19914;-83
2022/03/23 09:14:11;;;;;;;;;;;12.30;91.30;;;;;;4974779;28;19914;-82
2022/03/23 09:16:37;;;;;;;;;;;12.40;90.50;;;;;;4974689;28;19910;-83
2022/03/23 09:19:03;;;;;;;;;;;12.40;91.50;;;;;;4973959;28;20375;-83
2022/03/23 09:21:28;;;;;;;;;;;12.50;92.00;;;;;;4973084;28;20330;-84
2022/03/23 09:23:54;;;;;;;;;;;12.60;91.10;;;;;;4973636;28;19910;-84
2022/03/23 09:26:19;;;;;;;;;;;12.60;91.40;;;;;;4974727;28;19937;-84
2022/03/23 09:28:45;;;;;;;;;;;12.70;91.20;;;;;;4972798;28;19910;-84
2022/03/23 09:31:11;;;;;;;;;;;12.70;90.50;;;;;;4973099;28;19968;-84
2022/03/23 09:33:36;;;;;;;;;;;12.60;92.20;;;;;;4974186;28;20288;-83
2022/03/23 09:36:02;;;;;;;;;;;12.90;91.60;;;;;;4955488;28;19923;-85
2022/03/23 09:38:29;;;;;;;;;;;12.90;90.80;;;;;;4972991;28;19973;-83
2022/03/23 09:40:55;;;;;;;;;;;13.00;91.20;;;;;;4972480;28;19914;-84
2022/03/23 09:43:23;;;;;;;;;;;13.10;90.80;;;;;;4972296;28;19917;-83
2022/03/23 09:45:48;;;;;;;;;;;13.10;91.00;;;;;;4972839;28;20398;-83
2022/03/23 09:48:16;;;;;;;;;;;13.30;91.30;;;;;;4973245;28;19965;-84
2022/03/23 09:50:45;;;;;;;;;;;13.40;91.30;;;;;;4972276;28;19917;-84
2022/03/23 09:53:11;;;;;;;;;;;13.50;91.20;;;;;;4972109;28;19922;-84
2022/03/23 09:55:37;;;;;;;;;;;13.60;91.30;;;;;;4972090;28;19917;-84
2022/03/23 09:58:04;;;;;;;;;;;13.70;90.90;;;;;;4955333;28;20363;-83
2022/03/23 10:00:34;;;;;;;;;;;13.70;91.10;;;;;;4972556;28;19961;-84
2022/03/23 10:03:09;;;;;;;;;;;13.80;90.80;;;;;;4972308;28;19914;-84
2022/03/23 10:05:47;;;;;;;;;;;13.80;90.60;;;;;;4972480;28;20065;-84
2022/03/23 10:08:27;;;;;;;;;;;13.70;89.80;;;;;;4971968;28;20279;-84
2022/03/23 10:11:12;;;;;;;;;;;13.70;91.10;;;;;;4972719;28;19914;-86
2022/03/23 10:13:57;;;;;;;;;;;13.80;90.60;;;;;;4972379;28;20382;-83
2022/03/23 10:16:42;;;;;;;;;;;14.00;91.60;;;;;;4972842;28;19910;-82
2022/03/23 10:19:07;;;;;;;;;;;14.20;91.30;;;;;;4954348;28;20017;-82
2022/03/23 10:21:34;;;;;;;;;;;14.30;90.50;;;;;;4972149;28;20045;-82
2022/03/23 10:24:00;;;;;;;;;;;14.40;90.50;;;;;;4972491;28;19918;-82
2022/03/23 10:26:26;;;;;;;;;;;14.40;90.00;;;;;;4954982;28;19914;-81
2022/03/23 10:28:52;;;;;;;;;;;14.50;91.20;;;;;;4972029;28;19949;-84
2022/03/23 10:31:19;;;;;;;;;;;14.60;90.00;;;;;;4972023;28;20016;-85
2022/03/23 10:33:55;;;;;;;;;;;14.60;91.10;;;;;;4972141;28;19988;-84
2022/03/23 10:36:23;;;;;;;;;;;14.70;90.60;;;;;;4970855;28;20039;-84
2022/03/23 10:38:49;;;;;;;;;;;14.90;90.00;;;;;;4972259;28;19910;-84
2022/03/23 10:41:24;;;;;;;;;;;14.90;90.40;;;;;;4972286;28;20383;-84
2022/03/23 10:43:49;;;;;;;;;;;15.00;90.60;;;;;;4971834;28;19910;-84
2022/03/23 10:46:16;;;;;;;;;;;15.10;90.20;;;;;;4971738;28;19917;-84
2022/03/23 10:49:07;;;;;;;;;;;15.20;90.40;;;;;;4969785;28;19910;-84
2022/03/23 10:51:33;;;;;;;;;;;15.30;89.50;;;;;;4971842;28;19925;-84
2022/03/23 10:54:12;;;;;;;;;;;15.30;88.50;;;;;;4970833;28;19910;-84
2022/03/23 10:56:38;;;;;;;;;;;15.30;89.30;;;;;;4971873;28;19914;-84
2022/03/23 10:59:21;;;;;;;;;;;15.30;90.10;;;;;;4971453;28;19910;-84
2022/03/23 11:02:05;;;;;;;;;;;15.50;89.60;;;;;;4971655;28;19918;-84
2022/03/23 11:04:43;;;;;;;;;;;15.70;88.90;;;;;;4971490;28;19910;-84
2022/03/23 11:07:22;;;;;;;;;;;15.60;87.00;;;;;;4971957;28;19921;-84
2022/03/23 11:18:06;;;;;;;;;;;15.60;89.40;;;;;;4990731;28;20047;-83
2022/03/23 11:20:41;;;;;;;;;;;15.90;90.10;;;;;;4990361;28;19922;-84
2022/03/23 11:23:18;;;;;;;;;;;15.80;89.50;;;;;;4963069;28;19916;-83
2022/03/23 11:25:49;;;;;;;;;;;16.00;88.50;;;;;;4954120;28;20282;-83
2022/03/23 11:28:15;;;;;;;;;;;16.10;89.60;;;;;;4971524;28;19918;-84
2022/03/23 11:30:44;;;;;;;;;;;16.20;86.70;;;;;;4971435;28;19910;-83
2022/03/23 11:33:11;;;;;;;;;;;16.20;89.90;;;;;;4970948;28;20181;-84
2022/03/23 11:35:47;;;;;;;;;;;16.40;88.10;;;;;;4971239;28;19910;-84
2022/03/23 11:38:14;;;;;;;;;;;16.60;89.70;;;;;;4971341;28;19917;-84
2022/03/23 11:40:44;;;;;;;;;;;16.70;88.60;;;;;;4971114;28;20408;-84
2022/03/23 11:43:16;;;;;;;;;;;16.90;87.40;;;;;;4971246;28;20147;-83
2022/03/23 11:45:42;;;;;;;;;;;17.00;88.50;;;;;;4971198;28;19914;-83
2022/03/23 11:48:16;;;;;;;;;;;17.10;87.10;;;;;;4969837;28;19914;-84
2022/03/23 11:51:05;;;;;;;;;;;17.10;87.50;;;;;;4971226;28;19910;-88
2022/03/23 11:53:40;;;;;;;;;;;17.20;86.30;;;;;;4962974;28;19919;-89
2022/03/23 11:56:06;;;;;;;;;;;17.20;86.50;;;;;;4971192;28;19973;-90
2022/03/23 11:58:33;;;;;;;;;;;17.30;85.20;;;;;;4953388;28;19921;-89
2022/03/23 12:01:09;;;;;;;;;;;17.30;87.00;;;;;;4969157;28;20294;-89
2022/03/23 12:03:41;;;;;;;;;;;17.40;86.30;;;;;;4970100;28;19910;-89
2022/03/23 12:06:14;;;;;;;;;;;17.40;86.30;;;;;;4955710;28;19910;-87
2022/03/23 12:08:49;;;;;;;;;;;17.60;86.60;;;;;;4974479;28;20399;-87
2022/03/23 12:11:41;;;;;;;;;;;17.60;86.30;;;;;;4975295;28;19914;-88
2022/03/23 12:14:17;;;;;;;;;;;17.80;85.90;;;;;;4955621;28;20282;-89
2022/03/23 12:16:46;;;;;;;;;;;17.90;85.80;;;;;;4974830;28;20398;-88
2022/03/23 12:19:11;;;;;;;;;;;18.10;84.50;;;;;;4974268;28;19922;-87
2022/03/23 12:21:55;;;;;;;;;;;17.90;83.90;;;;;;4974219;28;19965;-90
2022/03/23 12:24:39;;;;;;;;;;;18.00;85.70;;;;;;4957467;28;19925;-90
2022/03/23 12:27:07;;;;;;;;;;;18.00;84.80;;;;;;4974655;28;19965;-90
2022/03/23 12:29:36;;;;;;;;;;;18.00;84.40;;;;;;4974762;28;20275;-90
2022/03/23 12:32:03;;;;;;;;;;;18.20;85.00;;;;;;4973160;28;20452;-89
2022/03/23 12:34:29;;;;;;;;;;;18.30;84.40;;;;;;4974484;28;20485;-90
2022/03/23 12:37:05;;;;;;;;;;;18.40;84.40;;;;;;4974294;28;19911;-90
2022/03/23 12:39:31;;;;;;;;;;;18.50;84.00;;;;;;4974249;28;20068;-90
2022/03/23 12:41:58;;;;;;;;;;;18.60;84.10;;;;;;4957250;28;20009;-90
2022/03/23 12:44:29;;;;;;;;;;;18.70;83.80;;;;;;4972902;28;19994;-90
2022/03/23 12:46:54;;;;;;;;;;;18.70;84.10;;;;;;4975008;28;19911;-90
2022/03/23 12:57:52;;;;;;;;;;;19.00;82.00;;;;;;4974417;28;20342;-90
2022/03/23 13:00:31;;;;;;;;;;;19.00;81.30;;;;;;4972739;28;19933;-89
2022/03/23 13:03:06;;;;;;;;;;;19.00;81.70;;;;;;4973968;28;19910;-90
2022/03/23 13:05:35;;;;;;;;;;;19.00;82.80;;;;;;4973811;28;20334;-90
2022/03/23 13:08:21;;;;;;;;;;;19.20;81.00;;;;;;4973990;28;19910;-90
2022/03/23 13:10:54;;;;;;;;;;;19.30;82.00;;;;;;4973552;28;19918;-89
2022/03/23 13:13:20;;;;;;;;;;;19.10;78.60;;;;;;4972036;28;19922;-90
2022/03/23 13:15:46;;;;;;;;;;;19.10;80.40;;;;;;4973758;28;19918;-90
2022/03/23 13:18:11;;;;;;;;;;;19.10;80.40;;;;;;4971611;28;20337;-90
2022/03/23 13:20:37;;;;;;;;;;;19.20;82.50;;;;;;4973012;28;19969;-90
2022/03/23 13:23:10;;;;;;;;;;;19.40;81.10;;;;;;4973416;28;19910;-90
2022/03/23 13:25:36;;;;;;;;;;;19.50;82.40;;;;;;4973372;28;20190;-90
2022/03/23 13:28:10;;;;;;;;;;;19.50;80.40;;;;;;4955611;28;19911;-90
2022/03/23 13:30:35;;;;;;;;;;;19.50;80.70;;;;;;4974061;28;20433;-90
2022/03/23 13:33:01;;;;;;;;;;;19.70;79.90;;;;;;4974076;28;19990;-90
2022/03/23 13:35:26;;;;;;;;;;;19.90;80.30;;;;;;4973922;28;20371;-90
2022/03/23 13:37:52;;;;;;;;;;;20.10;79.20;;;;;;4973978;28;19910;-90
2022/03/23 13:40:20;;;;;;;;;;;20.10;78.70;;;;;;4974306;28;20064;-90
2022/03/23 13:45:30;;;;;;;;;;;20.40;79.30;;;;;;4979081;28;19917;-78
2022/03/23 13:47:56;;;;;;;;;;;20.50;78.40;;;;;;4976464;28;19906;-77
2022/03/23 13:50:22;;;;;;;;;;;20.60;77.70;;;;;;4982122;28;19930;-77
2022/03/23 13:52:47;;;;;;;;;;;20.80;77.40;;;;;;4981639;28;20253;-77
2022/03/23 13:55:16;;;;;;;;;;;20.80;77.40;;;;;;4978580;28;19911;-77
2022/03/23 13:57:42;;;;;;;;;;;20.60;77.00;;;;;;4979400;28;19964;-77
2022/03/23 14:00:38;;;;;;;;;;;20.50;76.70;;;;;;4974819;28;19914;-77
2022/03/23 14:03:04;;;;;;;;;;;20.60;76.30;;;;;;4958837;28;19906;-77
2022/03/23 14:05:30;;;;;;;;;;;20.70;76.20;;;;;;4979919;28;19914;-76
2022/03/23 14:07:57;;;;;;;;;;;20.90;75.30;;;;;;4980214;28;19910;-77
2022/03/23 14:10:43;;;;;;;;;;;20.90;75.00;;;;;;4978151;28;19910;-76
2022/03/23 14:13:11;;;;;;;;;;;21.10;74.20;;;;;;4977525;28;19985;-77
2022/03/23 14:15:47;;;;;;;;;;;21.30;73.60;;;;;;4980298;28;20222;-77
2022/03/23 14:18:14;;;;;;;;;;;21.40;75.40;;;;;;4978008;28;20001;-77
2022/03/23 14:20:50;;;;;;;;;;;21.60;74.20;;;;;;4977858;28;19930;-76
2022/03/23 14:23:16;;;;;;;;;;;21.70;74.50;;;;;;4977672;28;20246;-77
2022/03/23 14:25:42;;;;;;;;;;;21.70;74.70;;;;;;4959865;28;19911;-76
2022/03/23 14:28:20;;;;;;;;;;;22.00;73.10;;;;;;4975809;28;19957;-76
2022/03/23 14:30:49;;;;;;;;;;;21.90;73.00;;;;;;4956882;28;19914;-77
2022/03/23 14:33:21;;;;;;;;;;;22.40;73.90;;;;;;4976136;28;20016;-77
2022/03/23 14:35:47;;;;;;;;;;;22.60;72.10;;;;;;4978946;28;19914;-77
2022/03/23 14:38:13;;;;;;;;;;;23.10;71.10;;;;;;4977423;28;20321;-77
2022/03/23 14:40:49;;;;;;;;;;;23.30;71.10;;;;;;4979103;28;19910;-77
2022/03/23 14:43:28;;;;;;;;;;;23.50;69.60;;;;;;4980216;28;19917;-77
2022/03/23 14:45:54;;;;;;;;;;;23.80;69.40;;;;;;4980137;28;19914;-77
2022/03/23 14:48:24;;;;;;;;;;;24.30;69.10;;;;;;4980569;28;19917;-77
2022/03/23 14:50:51;;;;;;;;;;;24.90;67.50;;;;;;4979503;28;19918;-77
2022/03/23 14:53:18;;;;;;;;;;;25.40;67.60;;;;;;4979644;28;19918;-77
2022/03/23 14:55:44;;;;;;;;;;;26.30;66.80;;;;;;4978932;28;19906;-79